Latest Coastal Weather Observations for Whyalla

IDS60701

Issued at 8:51 am CDT Tuesday 21 February 2017 (issued every 10 minutes, with the page automatically refreshed every 10 minutes)

About coastal observations | Map of coastal stations | Coastal observations for SA | Marine services | Other Formats
Station Details ID: 018120 Name: WHYALLA AERO Lat: -33.05 Lon: 137.52 Height: 9.3 m
Data from the previous 72 hours. | See also: Recent months at Whyalla
Date/Time
CDT
Temp
°C
Wind Pressure Rain since
9am
mm
Weather Cloud Vis
km
Sea
Height
m
Swell
Dir  Spd
kts
Gust
kts
hPa Trend Height
m
Period
s
Dir
21/08:30am 17.9 CALM 0 0 1017.3 - 0.0 - - 10 - - - -
21/08:00am 14.2 NW 2 4 1017.4 - 0.0 - - 10 - - - -
21/07:30am 11.9 NW 4 4 1017.0 - 0.0 - - 10 - - - -
21/07:00am 11.4 NW 5 6 1016.8 - 0.0 - - 10 - - - -
21/06:30am 11.6 NW 5 7 1016.5 - 0.0 - - 10 - - - -
21/06:00am 11.8 NW 5 7 1016.1 - 0.0 - - 10 - - - -
21/05:30am 11.9 NW 5 5 1016.2 - 0.0 - - 10 - - - -
21/05:00am 12.1 WNW 4 4 1016.0 - 0.0 - - 10 - - - -
21/04:30am 13.4 CALM 0 0 1016.1 - 0.0 - - 10 - - - -
21/04:00am 15.2 ENE 1 3 1016.2 - 0.0 - - 10 - - - -
21/03:30am 16.9 ENE 4 5 1016.2 - 0.0 - - 10 - - - -
21/03:00am 17.1 SE 4 5 1016.5 - 0.0 - - 10 - - - -
21/02:30am 17.5 SE 6 9 1016.6 - 0.0 - - 10 - - - -
21/02:00am 17.7 SE 7 10 1017.1 - 0.0 - - 10 - - - -
21/01:30am 17.9 SE 9 14 1017.2 - 0.0 - - 10 - - - -
21/01:00am 18.4 ESE 11 14 1017.5 - 0.0 - - 10 - - - -
21/12:30am 18.8 SE 9 11 1017.9 - 0.0 - - 10 - - - -
21/12:00am 18.9 SE 8 11 1017.9 - 0.0 - - 10 - - - -
 
Date/Time
CDT
Temp
°C
Wind Pressure Rain since
9am
mm
Weather Cloud Vis
km
Sea
Height
m
Swell
Dir  Spd
kts
Gust
kts
hPa Trend Height
m
Period
s
Dir
20/11:30pm 19.0 SE 7 11 1018.0 - 0.0 - - 10 - - - -
20/11:00pm 19.3 SE 8 12 1018.2 - 0.0 - - 10 - - - -
20/10:30pm 19.5 SSE 9 11 1018.1 - 0.0 - - 10 - - - -
20/10:00pm 19.4 SSE 9 11 1018.1 - 0.0 - - 10 - - - -
20/09:30pm 19.5 SSE 9 13 1017.8 - 0.0 - - 10 - - - -
20/09:00pm 19.4 S 8 10 1017.6 - 0.0 - - 10 - - - -
20/08:30pm 19.5 S 8 10 1017.4 - 0.0 - - 10 - - - -
20/08:00pm 20.0 S 10 14 1017.1 - 0.0 - - 10 - - - -
20/07:30pm 20.4 S 11 16 1016.8 - 0.0 - - 10 - - - -
20/07:00pm 20.9 S 13 18 1016.6 - 0.0 - - 10 - - - -
20/06:30pm 21.4 S 12 16 1016.4 - 0.0 - - 10 - - - -
20/06:00pm 21.9 SSW 14 19 1016.2 - 0.0 - - 10 - - - -
20/05:30pm 21.9 SSW 12 16 1016.1 - 0.0 - - 10 - - - -
20/05:00pm 22.5 S 11 16 1016.0 - 0.0 - - 10 - - - -
20/04:30pm 22.2 S 10 16 1016.3 - 0.0 - - 10 - - - -
20/04:00pm 21.5 SSE 9 13 1016.4 - 0.0 - - 10 - - - -
20/03:30pm 20.9 SSE 9 13 1016.6 - 0.0 - - 10 - - - -
20/03:00pm 20.1 SSE 9 13 1016.9 - 0.0 - - 10 - - - -
20/02:30pm 20.1 SE 9 13 1017.2 - 0.0 - - 10 - - - -
20/02:00pm 20.0 SE 8 13 1017.6 - 0.0 - Partly cloudy 10 - - - -
20/01:30pm 19.9 SE 8 12 1018.0 - 0.0 - Partly cloudy 10 - - - -
20/01:00pm 18.6 SE 7 11 1018.2 - 0.0 - Partly cloudy 10 - - - -
20/12:30pm 18.8 SSE 8 11 1018.3 - 0.0 - Partly cloudy 10 - - - -
20/12:00pm 18.7 SE 7 14 1018.4 - 0.0 - Cloudy 10 - - - -
20/11:30am 17.8 SE 7 10 1018.8 - 0.0 - Partly cloudy 10 - - - -
20/11:00am 17.4 S 7 10 1019.0 - 0.0 - Cloudy 10 - - - -
20/10:30am 17.3 SSW 8 10 1018.9 - 0.0 - Cloudy 10 - - - -
20/10:00am 17.2 SSW 6 8 1019.0 - 0.0 - Cloudy 10 - - - -
20/09:30am 16.0 SSW 7 9 1019.0 - 0.0 - Cloudy - - - - -
20/09:00am 15.6 SSW 7 9 1019.0 - 2.0 - Cloudy - - - - -
20/08:30am 15.2 WSW 4 5 1018.9 - 2.0 - Cloudy - - - - -
20/08:00am 14.3 WNW 4 6 1018.8 - 2.0 - Cloudy - - - - -
20/07:30am 14.2 WNW 4 5 1018.6 - 1.8 - Cloudy - - - - -
20/07:00am 14.3 NE 3 4 1018.0 - 1.6 - Partly cloudy - - - - -
20/06:30am 14.4 NNE 4 6 1017.8 - 0.2 - Partly cloudy - - - - -
20/06:23am 14.4 NE 4 6 1017.7 - 0.2 - Partly cloudy - - - - -
20/06:00am 14.3 N 3 7 1017.4 - 0.2 - Cloudy - - - - -
20/05:49am 14.3 NE 4 6 1017.2 - 0.2 - Partly cloudy - - - - -
20/05:30am 14.4 NE 5 6 1017.2 - 0.2 - Partly cloudy - - - - -
20/05:03am 14.6 E 5 9 1017.0 - 0.2 - Partly cloudy - - - - -
20/05:00am 14.5 ESE 6 10 1017.0 - 0.2 - Partly cloudy - - - - -
20/04:30am 15.4 SSW 9 13 1016.9 - 0.2 - Partly cloudy 10 - - - -
20/04:00am 15.2 WSW 9 12 1016.8 - 0.2 - Partly cloudy 10 - - - -
20/03:30am 15.3 SW 13 17 1016.8 - 0.2 - Partly cloudy 10 - - - -
20/03:00am 16.0 SW 11 15 1016.8 - 0.2 - Cloudy 10 - - - -
20/02:30am 16.1 WSW 10 13 1016.8 - 0.2 - Cloudy 10 - - - -
20/02:00am 16.6 SW 9 12 1016.9 - 0.2 - Partly cloudy 10 - - - -
20/01:30am 17.1 SW 11 16 1017.1 - 0.2 - Partly cloudy 10 - - - -
20/01:00am 17.0 SW 11 15 1017.2 - 0.2 - Partly cloudy 10 - - - -
20/12:30am 16.7 SW 10 13 1017.3 - 0.2 - Partly cloudy 10 - - - -
20/12:00am 16.9 SW 10 13 1017.2 - 0.2 - Mostly cloudy 10 - - - -
 
Date/Time
CDT
Temp
°C
Wind Pressure Rain since
9am
mm
Weather Cloud Vis
km
Sea
Height
m
Swell
Dir  Spd
kts
Gust
kts
hPa Trend Height
m
Period
s
Dir
19/11:30pm 16.8 SW 9 12 1017.5 - 0.2 - Partly cloudy 10 - - - -
19/11:00pm 17.2 SSW 12 15 1017.6 - 0.2 - Partly cloudy 10 - - - -
19/10:30pm 17.1 SSW 11 15 1017.8 - 0.2 - - 10 - - - -
19/10:00pm 17.3 SW 12 16 1017.8 - 0.2 - - 10 - - - -
19/09:30pm 17.7 SSW 11 16 1017.6 - 0.2 - Partly cloudy 10 - - - -
19/09:00pm 18.0 SSW 13 20 1017.3 - 0.2 - Mostly clear 10 - - - -
19/08:30pm 18.3 SSW 14 19 1017.0 - 0.2 - Partly cloudy 10 - - - -
19/08:00pm 18.6 S 16 21 1016.6 - 0.2 - Partly cloudy 10 - - - -
19/07:30pm 19.2 S 17 23 1016.4 - 0.2 - Partly cloudy 10 - - - -
19/07:00pm 19.4 S 17 24 1016.1 - 0.2 - - 10 - - - -
19/06:30pm 19.9 S 18 25 1015.9 - 0.2 - - 10 - - - -
19/06:00pm 20.3 S 18 25 1016.0 - 0.2 - - 10 - - - -
19/05:30pm 20.6 S 17 23 1016.1 - 0.2 - - 10 - - - -
19/05:00pm 21.1 S 17 23 1016.1 - 0.2 - Partly cloudy 10 - - - -
19/04:30pm 21.0 S 18 23 1016.3 - 0.2 - Cloudy 10 - - - -
19/04:00pm 21.1 S 18 25 1016.5 - 0.2 - Cloudy 10 - - - -
19/03:30pm 18.7 SSE 15 20 1017.1 - 0.2 - Cloudy 10 - - - -
19/03:00pm 20.6 S 13 19 1017.2 - 0.2 - Cloudy 10 - - - -
19/02:30pm 19.7 S 18 24 1017.5 - 0.2 - Partly cloudy 10 - - - -
19/02:00pm 20.9 S 17 23 1017.6 - 0.2 - Partly cloudy 10 - - - -
19/01:30pm 18.8 S 18 26 1017.7 - 0.2 - Partly cloudy 10 - - - -
19/01:10pm 18.5 S 15 25 1017.9 - 0.2 - Partly cloudy 10 - - - -
19/01:00pm 20.2 S 12 18 1018.0 - 0.2 - Partly cloudy 10 - - - -
19/12:30pm 18.8 S 11 18 1018.3 - 0.2 - Partly cloudy 10 - - - -
19/12:00pm 18.5 S 11 15 1018.7 - 0.2 - Cloudy 10 - - - -
19/11:30am 17.6 S 13 20 1018.8 - 0.2 - Partly cloudy 10 - - - -
19/11:00am 18.2 SSW 12 17 1018.9 - 0.2 - Partly cloudy 10 - - - -
19/10:30am 17.3 SSW 9 14 1018.9 - 0.2 - Partly cloudy 10 - - - -
19/10:00am 17.6 SSW 10 14 1018.6 - 0.2 - Partly cloudy - - - - -
19/09:30am 14.2 S 8 13 1018.7 - 0.2 - Partly cloudy - - - - -
19/09:00am 15.4 SW 9 13 1018.5 - 0.4 - Cloudy - - - - -
19/08:30am 14.9 SW 7 9 1018.5 - 0.4 - Partly cloudy - - - - -
19/08:00am 13.8 SW 7 9 1018.4 - 0.4 - Partly cloudy - - - - -
19/07:30am 13.3 SW 9 12 1018.4 - 0.4 - Partly cloudy - - - - -
19/07:00am 13.6 SW 13 19 1018.1 - 0.4 - Partly cloudy - - - - -
19/06:55am 14.0 SW 12 19 1018.0 - 0.4 - Partly cloudy 10 - - - -
19/06:30am 13.9 SW 4 7 1017.9 - 0.4 - Partly cloudy 10 - - - -
19/06:00am 14.2 SSW 6 9 1017.6 - 0.4 - Cloudy 10 - - - -
19/05:30am 14.3 SSW 9 13 1017.6 - 0.4 - Partly cloudy 10 - - - -
19/05:00am 14.0 SW 11 14 1017.3 - 0.4 - Partly cloudy 10 - - - -
19/04:30am 13.9 SW 10 13 1017.3 - 0.4 - Partly cloudy 10 - - - -
19/04:00am 14.1 SW 9 12 1017.2 - 0.4 - Cloudy 10 - - - -
19/03:30am 14.2 WSW 9 14 1017.3 - 0.4 - Partly cloudy 10 - - - -
19/03:00am 13.9 SW 5 9 1017.9 - 0.4 Rain Cloudy - - - - -
19/02:48am 14.0 SSW 7 10 1018.0 - 0.2 - Partly cloudy 5 - - - -
19/02:30am 14.7 SW 11 16 1017.9 - 0.2 - Partly cloudy 10 - - - -
19/02:00am 14.8 SW 10 15 1017.9 - 0.2 - Cloudy 10 - - - -
19/01:30am 14.7 SW 13 19 1018.2 - 0.2 - Partly cloudy 10 - - - -
19/01:00am 14.3 WSW 12 17 1018.2 - 0.2 - Partly cloudy 10 - - - -
19/12:30am 14.2 SW 12 17 1018.4 - 0.2 - Partly cloudy 7 - - - -
19/12:00am 15.2 SW 11 17 1018.4 - 0.0 - Cloudy 10 - - - -
 
Date/Time
CDT
Temp
°C
Wind Pressure Rain since
9am
mm
Weather Cloud Vis
km
Sea
Height
m
Swell
Dir  Spd
kts
Gust
kts
hPa Trend Height
m
Period
s
Dir
18/11:30pm 15.6 SSW 9 16 1018.1 - 0.0 - Partly cloudy 10 - - - -
18/11:00pm 17.4 SSW 14 21 1018.0 - 0.0 - Partly cloudy 10 - - - -
18/10:30pm 17.4 SSW 16 24 1017.9 - 0.0 - Cloudy 10 - - - -
18/10:00pm 17.1 S 11 17 1017.9 - 0.0 - Partly cloudy 10 - - - -
18/09:40pm 17.4 SSW 15 26 1017.5 - 0.0 - Partly cloudy 10 - - - -
18/09:30pm 17.2 SW 14 20 1017.6 - 0.0 - Partly cloudy 10 - - - -
18/09:00pm 17.5 SSW 14 19 1017.4 - 0.0 - Mostly cloudy 10 - - - -
18/08:30pm 17.8 SSW 18 25 1017.0 - 0.0 - Cloudy 10 - - - -
18/08:00pm 17.9 SSW 17 23 1016.8 - 0.0 - Partly cloudy 10 - - - -
18/07:30pm 18.7 SSW 16 24 1016.6 - 0.0 - Partly cloudy 10 - - - -
18/07:00pm 18.4 S 20 26 1016.3 - 0.0 - Partly cloudy 10 - - - -
18/06:30pm 19.9 S 19 25 1016.0 - 0.0 - Partly cloudy 10 - - - -
18/06:00pm 19.2 S 20 26 1015.8 - 0.0 - Cloudy 10 - - - -
18/05:30pm 19.4 S 18 25 1015.8 - 0.0 - Partly cloudy 10 - - - -
18/05:00pm 20.4 SSW 18 26 1015.8 - 0.0 - Partly cloudy 10 - - - -
18/04:48pm 20.0 S 19 29 1015.8 - 0.0 - Partly cloudy 10 - - - -
18/04:30pm 20.4 S 21 27 1016.0 - 0.0 - Partly cloudy 10 - - - -
18/04:02pm 21.3 S 19 29 1016.2 - 0.0 - Partly cloudy 10 - - - -
18/04:00pm 20.6 S 20 29 1016.2 - 0.0 - Partly cloudy 10 - - - -
18/03:30pm 20.3 SSW 22 30 1016.2 - 0.0 - Partly cloudy 10 - - - -
18/03:00pm 20.5 S 23 30 1016.2 - 0.0 - Cloudy 10 - - - -
18/02:30pm 21.1 S 21 27 1016.2 - 0.0 - Partly cloudy 10 - - - -
18/02:00pm 22.4 S 20 27 1016.3 - 0.0 - Partly cloudy 10 - - - -
18/01:30pm 22.1 S 15 20 1016.6 - 0.0 - Cloudy 10 - - - -
18/01:00pm 22.0 SSE 11 16 1016.7 - 0.0 - Cloudy 10 - - - -
18/12:30pm 21.7 S 14 22 1017.1 - 0.0 - Cloudy 10 - - - -
18/12:00pm 21.4 SSW 17 23 1017.1 - 0.0 - Mostly cloudy 10 - - - -
18/11:30am 22.1 SW 17 24 1017.1 - 0.0 - Partly cloudy 10 - - - -
18/11:18am 21.7 SSW 18 29 1017.1 - 0.0 - Partly cloudy 10 - - - -
18/11:00am 21.4 SW 14 20 1017.1 - 0.0 - Partly cloudy 10 - - - -
18/10:30am 20.0 SSW 14 23 1017.2 - 0.0 - Partly cloudy 10 - - - -
18/10:00am 18.9 SW 16 20 1017.3 - 0.0 - Partly cloudy 10 - - - -
18/09:30am 18.5 SW 17 23 1017.2 - 0.0 - - 10 - - - -
18/09:00am 18.1 SW 18 23 1017.0 - 0.0 - Mostly clear 10 - - - -

Other Formats:

Comma delimited format used in spreadsheet applications
http://www.bom.gov.au/fwo/IDS60701/IDS60701.95664.axf

JavaScript Object Notation format (JSON) in row-major order
http://www.bom.gov.au/fwo/IDS60701/IDS60701.95664.json